createdAt,value
2019-01-03T00:01:56.097Z,13.70
2019-01-03T00:04:29.596Z,12.40
2019-01-03T00:07:00.382Z,12.80
2019-01-03T00:09:31.151Z,13.33
2019-01-03T00:12:07.853Z,13.27
2019-01-03T00:14:41.573Z,14.37
2019-01-03T00:17:24.288Z,9.93
2019-01-03T00:20:04.211Z,12.13
2019-01-03T00:22:51.013Z,10.60
2019-01-03T00:25:27.720Z,9.30
2019-01-03T00:28:04.538Z,9.67
2019-01-03T00:30:35.273Z,9.27
2019-01-03T00:33:15.294Z,10.57
2019-01-03T00:36:01.130Z,14.37
2019-01-03T00:38:34.892Z,11.20
2019-01-03T00:41:05.668Z,10.63
2019-01-03T00:43:39.218Z,9.63
2019-01-03T00:46:09.996Z,9.77
2019-01-03T00:48:55.726Z,11.90
2019-01-03T00:51:38.571Z,12.23
2019-01-03T00:54:12.285Z,9.03
2019-01-03T00:56:59.037Z,13.60
2019-01-03T00:59:29.780Z,9.17
2019-01-03T01:02:09.337Z,10.53
2019-01-03T01:04:56.616Z,8.80
2019-01-03T01:07:30.104Z,12.10
2019-01-03T01:10:09.594Z,10.27
2019-01-03T01:12:40.389Z,13.07
2019-01-03T01:15:22.767Z,12.70
2019-01-03T01:18:08.379Z,11.87
2019-01-03T01:20:41.881Z,15.77
2019-01-03T01:23:29.106Z,14.87
2019-01-03T01:26:16.045Z,12.93
2019-01-03T01:29:03.001Z,8.23
2019-01-03T01:31:48.793Z,10.90
2019-01-03T01:34:22.104Z,10.97
2019-01-03T01:36:52.895Z,10.30
2019-01-03T01:39:39.825Z,12.47
2019-01-03T01:42:13.282Z,15.67
2019-01-03T01:44:52.973Z,15.57
2019-01-03T01:47:29.796Z,19.60
2019-01-03T01:50:16.583Z,17.20
2019-01-03T01:52:49.806Z,18.70
2019-01-03T01:55:26.532Z,16.73
2019-01-03T01:58:06.263Z,21.13
2019-01-03T02:00:43.035Z,18.43
2019-01-03T02:03:16.584Z,15.83
2019-01-03T02:05:53.370Z,13.97
2019-01-03T02:08:24.162Z,11.97
2019-01-03T02:11:12.946Z,9.90
2019-01-03T02:13:58.496Z,14.13
2019-01-03T02:16:32.134Z,9.90
2019-01-03T02:19:02.928Z,8.63
2019-01-03T02:21:33.686Z,8.33
2019-01-03T02:24:10.371Z,7.37
2019-01-03T02:26:41.150Z,7.80
2019-01-03T02:29:30.047Z,8.60
2019-01-03T02:32:09.430Z,10.83
2019-01-03T02:34:56.300Z,8.50
2019-01-03T02:37:44.890Z,9.70
2019-01-03T02:40:33.886Z,9.53
2019-01-03T02:43:10.519Z,8.27
2019-01-03T02:45:46.917Z,9.93
2019-01-03T02:48:34.119Z,9.80
2019-01-03T02:51:16.701Z,9.10
2019-01-03T02:53:50.703Z,10.53
2019-01-03T02:56:27.386Z,7.07
2019-01-03T02:59:00.600Z,9.77
2019-01-03T03:01:37.394Z,8.90
2019-01-03T03:04:25.940Z,12.47
2019-01-03T03:06:56.709Z,10.77
2019-01-03T03:09:36.063Z,11.80
2019-01-03T03:12:09.242Z,6.77
2019-01-03T03:14:40.041Z,9.87
2019-01-03T03:17:17.063Z,10.07
2019-01-03T03:19:50.362Z,12.30
2019-01-03T03:22:21.133Z,10.43
2019-01-03T03:25:00.915Z,7.37
2019-01-03T03:27:31.766Z,11.93
2019-01-03T03:30:08.513Z,9.90
2019-01-03T03:32:54.071Z,7.33
2019-01-03T03:35:27.551Z,9.60
2019-01-03T03:38:00.803Z,10.33
2019-01-03T03:40:43.530Z,6.20
2019-01-03T03:43:14.301Z,7.73
2019-01-03T03:45:45.100Z,6.13
2019-01-03T03:48:15.876Z,8.77
2019-01-03T03:50:46.649Z,8.77
2019-01-03T03:53:17.447Z,5.93
2019-01-03T03:55:48.222Z,6.37
2019-01-03T03:58:35.303Z,4.63
2019-01-03T04:01:15.094Z,5.30
2019-01-03T04:04:02.246Z,7.93
2019-01-03T04:06:49.072Z,7.23
2019-01-03T04:09:25.677Z,9.33
2019-01-03T04:11:56.444Z,7.50
2019-01-03T04:14:43.418Z,10.63
2019-01-03T04:17:26.229Z,7.37
2019-01-03T04:20:02.670Z,6.83
2019-01-03T04:22:48.613Z,5.67
2019-01-03T04:25:22.244Z,7.13
2019-01-03T04:27:53.010Z,7.60
2019-01-03T04:30:23.782Z,7.53
2019-01-03T04:33:09.644Z,10.33
2019-01-03T04:35:56.792Z,10.50
2019-01-03T04:38:42.625Z,6.53
2019-01-03T04:41:25.656Z,7.03
2019-01-03T04:44:02.666Z,5.77
2019-01-03T04:46:33.452Z,6.97
2019-01-03T04:49:20.606Z,6.70
2019-01-03T04:51:51.393Z,7.63
2019-01-03T04:54:38.686Z,6.47
2019-01-03T04:57:15.056Z,6.07
2019-01-03T04:59:45.836Z,6.93
2019-01-03T05:02:19.082Z,10.13
2019-01-03T05:04:49.814Z,6.13
2019-01-03T05:07:20.592Z,5.37
2019-01-03T05:09:51.371Z,6.20
2019-01-03T05:12:22.146Z,8.20
2019-01-03T05:14:58.618Z,5.80
2019-01-03T05:17:35.357Z,4.57
2019-01-03T05:20:09.658Z,8.37
2019-01-03T05:22:42.854Z,8.53
2019-01-03T05:25:28.658Z,10.07
2019-01-03T05:28:15.661Z,7.77
2019-01-03T05:30:49.373Z,8.37
2019-01-03T05:33:26.122Z,13.87
2019-01-03T05:35:56.914Z,13.50
2019-01-03T05:38:43.764Z,11.93
2019-01-03T05:41:17.437Z,10.67
2019-01-03T05:43:48.215Z,10.77
2019-01-03T05:46:21.724Z,8.43
2019-01-03T05:49:08.774Z,12.63
2019-01-03T05:51:55.804Z,14.00
2019-01-03T05:54:29.281Z,11.93
2019-01-03T05:57:00.045Z,7.57
2019-01-03T05:59:30.818Z,9.00
2019-01-03T06:02:10.916Z,6.67
2019-01-03T06:04:50.589Z,7.73
2019-01-03T06:07:24.366Z,8.33
2019-01-03T06:09:55.163Z,7.57
2019-01-03T06:12:25.955Z,5.67
2019-01-03T06:15:05.528Z,7.43
2019-01-03T06:17:52.735Z,4.43
2019-01-03T06:20:26.178Z,5.27
2019-01-03T06:23:13.312Z,7.57
2019-01-03T06:25:49.754Z,4.13
2019-01-03T06:28:36.429Z,7.07
2019-01-03T06:31:07.213Z,6.83
2019-01-03T06:33:38.035Z,12.43
2019-01-03T06:36:14.789Z,10.17
2019-01-03T06:38:48.354Z,11.70
2019-01-03T06:41:24.957Z,7.10
2019-01-03T06:44:01.285Z,7.33
2019-01-03T06:46:32.052Z,8.53
2019-01-03T06:49:18.978Z,5.33
2019-01-03T06:51:49.757Z,7.97
2019-01-03T06:54:29.505Z,7.70
2019-01-03T06:57:16.641Z,4.50
2019-01-03T07:00:03.525Z,7.23
2019-01-03T07:02:50.369Z,6.17
2019-01-03T07:05:27.143Z,8.80
2019-01-03T07:08:07.097Z,5.87
2019-01-03T07:10:53.767Z,9.00
2019-01-03T07:13:40.786Z,7.93
2019-01-03T07:16:27.601Z,10.40
2019-01-03T07:19:10.169Z,6.97
2019-01-03T07:21:46.522Z,7.20
2019-01-03T07:24:17.304Z,7.30
2019-01-03T07:26:50.486Z,6.93
2019-01-03T07:29:36.294Z,10.10
2019-01-03T07:32:16.051Z,20.10
2019-01-03T07:34:46.861Z,14.60
2019-01-03T07:37:26.310Z,10.47
2019-01-03T07:39:59.615Z,13.93
2019-01-03T07:42:42.401Z,13.03
2019-01-03T07:45:29.020Z,12.77
2019-01-03T07:48:11.829Z,13.20
2019-01-03T07:50:54.427Z,17.10
2019-01-03T07:53:34.433Z,21.27
2019-01-03T07:56:22.212Z,16.17
2019-01-03T07:59:09.336Z,15.40
2019-01-03T08:01:40.094Z,12.93
2019-01-03T08:04:27.087Z,15.43
2019-01-03T08:07:15.966Z,12.47
2019-01-03T08:10:02.630Z,16.83
2019-01-03T08:12:33.412Z,13.90
2019-01-03T08:15:13.169Z,14.33
2019-01-03T08:18:00.278Z,13.47
2019-01-03T08:20:36.801Z,8.17
2019-01-03T08:23:16.950Z,8.43
2019-01-03T08:26:04.175Z,9.33
2019-01-03T08:28:50.274Z,9.87
2019-01-03T08:31:26.754Z,6.23
2019-01-03T08:34:03.550Z,16.13
2019-01-03T08:36:50.611Z,12.17
2019-01-03T08:39:27.341Z,18.33
2019-01-03T08:42:04.333Z,13.10
2019-01-03T08:44:35.126Z,11.70
2019-01-03T08:47:17.822Z,10.53
2019-01-03T08:49:51.084Z,10.03
2019-01-03T08:52:38.194Z,10.80
2019-01-03T08:55:11.643Z,12.23
2019-01-03T08:57:51.469Z,13.23
2019-01-03T09:00:22.220Z,8.60
2019-01-03T09:03:09.320Z,11.67
2019-01-03T09:05:40.095Z,7.77
2019-01-03T09:08:25.927Z,10.40
2019-01-03T09:10:59.317Z,10.87
2019-01-03T09:13:30.094Z,12.27
2019-01-03T09:16:15.941Z,9.77
2019-01-03T09:18:58.734Z,10.47
2019-01-03T09:21:32.196Z,8.00
2019-01-03T09:24:19.088Z,8.10
2019-01-03T09:26:55.804Z,9.80
2019-01-03T09:29:32.554Z,8.60
2019-01-03T09:32:15.287Z,11.03
2019-01-03T09:34:51.940Z,11.43
2019-01-03T09:37:40.559Z,8.13
2019-01-03T09:40:14.507Z,13.27
2019-01-03T09:43:01.359Z,12.07
2019-01-03T09:45:30.494Z,12.43
2019-01-03T09:47:59.645Z,11.33
2019-01-03T09:50:28.774Z,10.37
2019-01-03T09:52:57.915Z,20.50
2019-01-03T09:55:27.045Z,32.90
2019-01-03T09:57:56.194Z,36.17
2019-01-03T10:00:25.321Z,38.13
2019-01-03T10:02:54.477Z,28.07
2019-01-03T10:05:23.603Z,22.63
2019-01-03T10:07:52.773Z,28.30
2019-01-03T10:10:21.898Z,21.53
2019-01-03T10:12:51.048Z,25.57
2019-01-03T10:15:20.181Z,31.40
2019-01-03T10:17:49.332Z,31.00
2019-01-03T10:20:18.456Z,23.67
2019-01-03T10:22:47.614Z,28.67
2019-01-03T10:25:16.744Z,27.70
2019-01-03T10:27:45.880Z,31.30
2019-01-03T10:30:15.027Z,27.00
2019-01-03T10:32:44.161Z,30.87
2019-01-03T10:35:13.299Z,28.33
2019-01-03T10:37:42.451Z,21.13
2019-01-03T10:40:11.581Z,28.90
2019-01-03T10:42:40.715Z,21.20
2019-01-03T10:45:10.414Z,16.43
2019-01-03T10:47:39.562Z,14.00
2019-01-03T10:50:09.056Z,14.83
2019-01-03T10:52:38.197Z,12.93
2019-01-03T10:55:07.791Z,12.77
2019-01-03T10:57:36.929Z,15.57
2019-01-03T11:00:08.063Z,15.13
2019-01-03T11:02:37.191Z,12.37
2019-01-03T11:05:06.329Z,11.57
2019-01-03T11:07:35.466Z,17.23
2019-01-03T11:10:05.136Z,12.87
2019-01-03T11:12:34.273Z,12.30
2019-01-03T11:15:03.392Z,11.30
2019-01-03T11:17:32.543Z,12.43
2019-01-03T11:20:01.658Z,10.30
2019-01-03T11:22:30.800Z,10.10
2019-01-03T11:24:59.930Z,11.37
2019-01-03T11:27:29.068Z,10.97
2019-01-03T11:30:07.326Z,10.03
2019-01-03T11:32:36.458Z,11.90
2019-01-03T11:35:07.020Z,16.10
2019-01-03T11:37:36.244Z,13.07
2019-01-03T11:40:07.081Z,9.03
2019-01-03T11:42:36.231Z,9.97
2019-01-03T11:45:06.127Z,10.00
2019-01-03T11:47:35.320Z,11.93
2019-01-03T11:50:07.210Z,12.03
2019-01-03T11:52:36.343Z,14.17
2019-01-03T11:55:06.534Z,13.00
2019-01-03T11:57:35.658Z,14.33
2019-01-03T12:00:08.623Z,17.13
2019-01-03T12:02:37.751Z,17.73
2019-01-03T12:05:08.512Z,14.67
2019-01-03T12:07:37.628Z,15.57
2019-01-03T12:10:07.165Z,14.00
2019-01-03T12:12:36.272Z,15.17
2019-01-03T12:15:08.422Z,12.80
2019-01-03T12:17:37.549Z,11.60
2019-01-03T12:20:07.372Z,8.73
2019-01-03T12:22:36.529Z,11.57
2019-01-03T12:25:05.691Z,14.77
2019-01-03T12:27:34.797Z,10.00
2019-01-03T12:30:04.414Z,11.53
2019-01-03T12:32:33.549Z,12.73
2019-01-03T12:35:02.695Z,14.90
2019-01-03T12:37:31.816Z,12.67
2019-01-03T12:40:00.978Z,10.97
2019-01-03T12:42:30.086Z,14.20
2019-01-03T12:44:59.227Z,16.07
2019-01-03T12:47:28.351Z,14.00
2019-01-03T12:49:57.503Z,14.17
2019-01-03T12:52:26.625Z,19.53
2019-01-03T12:54:55.774Z,18.00
2019-01-03T12:57:24.894Z,17.73
2019-01-03T12:59:54.037Z,14.67
2019-01-03T13:02:23.174Z,19.70
2019-01-03T13:04:52.333Z,11.00
2019-01-03T13:07:21.469Z,16.33
2019-01-03T13:09:50.635Z,14.50
2019-01-03T13:12:19.761Z,11.30
2019-01-03T13:14:48.911Z,10.27
2019-01-03T13:17:18.045Z,16.30
2019-01-03T13:19:47.270Z,11.77
2019-01-03T13:22:16.401Z,12.97
2019-01-03T13:24:45.537Z,14.07
2019-01-03T13:27:14.666Z,10.37
2019-01-03T13:29:43.836Z,13.27
2019-01-03T13:32:12.954Z,12.50
2019-01-03T13:34:42.107Z,13.53
2019-01-03T13:37:11.241Z,12.00
2019-01-03T13:39:40.390Z,17.33
2019-01-03T13:42:09.517Z,16.50
2019-01-03T13:44:38.678Z,11.53
2019-01-03T13:47:07.803Z,18.03
2019-01-03T13:49:36.965Z,17.87
2019-01-03T13:52:06.078Z,14.67
2019-01-03T13:54:35.299Z,12.00
2019-01-03T13:57:04.427Z,12.37
2019-01-03T13:59:33.569Z,15.53
2019-01-03T14:02:02.725Z,15.73
2019-01-03T14:04:31.852Z,11.23
2019-01-03T14:07:01.004Z,13.70
2019-01-03T14:09:30.139Z,14.90
2019-01-03T14:11:59.283Z,11.33
2019-01-03T14:14:28.431Z,12.47
2019-01-03T14:16:58.406Z,16.70
2019-01-03T14:19:27.547Z,16.90
2019-01-03T14:21:56.689Z,18.57
2019-01-03T14:24:25.799Z,10.90
2019-01-03T14:26:54.946Z,10.63
2019-01-03T14:29:24.076Z,13.13
2019-01-03T14:31:53.224Z,18.37
2019-01-03T14:34:22.366Z,17.00
2019-01-03T14:36:51.499Z,13.33
2019-01-03T14:39:20.622Z,12.77
2019-01-03T14:41:49.755Z,14.40
2019-01-03T14:44:18.876Z,14.57
2019-01-03T14:46:48.021Z,13.07
2019-01-03T14:49:17.163Z,17.77
2019-01-03T14:51:46.380Z,10.87
2019-01-03T14:54:15.521Z,12.83
2019-01-03T14:56:44.688Z,15.87
2019-01-03T14:59:13.831Z,17.77
2019-01-03T15:01:43.047Z,11.47
2019-01-03T15:04:12.180Z,15.27
2019-01-03T15:06:41.589Z,19.40
2019-01-03T15:09:10.719Z,19.80
2019-01-03T15:11:39.864Z,16.10
2019-01-03T15:14:09.007Z,20.00
2019-01-03T15:16:38.155Z,20.00
2019-01-03T15:19:07.312Z,22.00
2019-01-03T15:21:36.444Z,18.20
2019-01-03T15:24:05.568Z,16.73
2019-01-03T15:26:34.991Z,20.60
2019-01-03T15:29:04.130Z,12.63
2019-01-03T15:31:33.273Z,17.23
2019-01-03T15:34:02.403Z,14.03
2019-01-03T15:36:31.565Z,11.23
2019-01-03T15:39:00.711Z,14.23
2019-01-03T15:41:29.859Z,12.87
2019-01-03T15:43:58.993Z,18.27
2019-01-03T15:46:28.151Z,15.80
2019-01-03T15:48:57.288Z,13.93
2019-01-03T15:51:26.437Z,13.90
2019-01-03T15:53:55.571Z,15.80
2019-01-03T15:56:24.721Z,14.20
2019-01-03T15:58:53.863Z,13.60
2019-01-03T16:01:23.041Z,18.53
2019-01-03T16:03:52.183Z,15.03
2019-01-03T16:06:21.337Z,14.10
2019-01-03T16:08:50.476Z,11.87
2019-01-03T16:11:19.619Z,17.53
2019-01-03T16:13:48.738Z,10.50
2019-01-03T16:16:17.906Z,12.73
2019-01-03T16:18:47.034Z,16.97
2019-01-03T16:21:16.177Z,13.07
2019-01-03T16:23:45.325Z,11.83
2019-01-03T16:26:14.431Z,7.93
2019-01-03T16:28:43.603Z,11.77
2019-01-03T16:31:12.761Z,11.40
2019-01-03T16:33:41.910Z,19.27
2019-01-03T16:36:11.072Z,17.03
2019-01-03T16:38:40.200Z,11.77
2019-01-03T16:41:10.669Z,13.00
2019-01-03T16:43:39.858Z,19.50
2019-01-03T16:46:09.009Z,14.70
2019-01-03T16:48:38.125Z,15.30
2019-01-03T16:51:07.279Z,12.27
2019-01-03T16:53:36.410Z,17.40
2019-01-03T16:56:05.550Z,16.33
2019-01-03T16:58:34.685Z,15.13
2019-01-03T17:01:03.838Z,19.30
2019-01-03T17:03:32.969Z,22.07
2019-01-03T17:06:02.097Z,18.07
2019-01-03T17:08:31.257Z,21.03
2019-01-03T17:11:00.376Z,18.57
2019-01-03T17:13:29.530Z,18.13
2019-01-03T17:15:58.659Z,16.97
2019-01-03T17:18:27.813Z,15.33
2019-01-03T17:20:56.958Z,17.03
2019-01-03T17:23:26.104Z,18.47
2019-01-03T17:25:55.253Z,17.20
2019-01-03T17:28:24.403Z,18.40
2019-01-03T17:30:53.546Z,19.87
2019-01-03T17:33:22.695Z,14.13
2019-01-03T17:35:51.832Z,17.07
2019-01-03T17:38:20.992Z,12.17
2019-01-03T17:40:50.135Z,20.73
2019-01-03T17:43:19.288Z,13.00
2019-01-03T17:45:48.442Z,23.00
2019-01-03T17:48:17.616Z,17.80
2019-01-03T17:50:46.776Z,14.27
2019-01-03T17:53:15.890Z,18.97
2019-01-03T17:55:45.033Z,15.57
2019-01-03T17:58:14.190Z,18.57
2019-01-03T18:00:43.503Z,15.10
2019-01-03T18:03:12.657Z,14.87
2019-01-03T18:05:41.798Z,17.93
2019-01-03T18:08:10.947Z,16.00
2019-01-03T18:10:40.085Z,24.53
2019-01-03T18:13:09.244Z,20.57
2019-01-03T18:15:38.381Z,21.50
2019-01-03T18:18:07.539Z,18.33
2019-01-03T18:20:36.680Z,22.50
2019-01-03T18:23:05.825Z,13.30
2019-01-03T18:25:36.150Z,22.23
2019-01-03T18:28:05.412Z,16.33
2019-01-03T18:30:34.543Z,19.37
2019-01-03T18:33:03.707Z,22.67
2019-01-03T18:35:32.832Z,20.83
2019-01-03T18:38:02.043Z,17.40
2019-01-03T18:40:31.181Z,19.97
2019-01-03T18:43:00.339Z,25.80
2019-01-03T18:45:29.479Z,21.13
2019-01-03T18:47:58.920Z,22.20
2019-01-03T18:50:28.058Z,23.60
2019-01-03T18:52:57.200Z,21.07
2019-01-03T18:55:26.366Z,22.27
2019-01-03T18:57:55.874Z,22.50
2019-01-03T19:00:25.033Z,26.20
2019-01-03T19:02:54.171Z,20.17
2019-01-03T19:05:23.331Z,22.10
2019-01-03T19:07:52.458Z,26.67
2019-01-03T19:10:21.615Z,23.77
2019-01-03T19:12:50.754Z,22.03
2019-01-03T19:15:19.907Z,21.83
2019-01-03T19:17:49.042Z,19.67
2019-01-03T19:20:18.194Z,24.97
2019-01-03T19:22:47.340Z,23.07
2019-01-03T19:25:16.862Z,21.87
2019-01-03T19:27:46.037Z,28.60
2019-01-03T19:30:15.216Z,21.97
2019-01-03T19:32:44.368Z,17.27
2019-01-03T19:35:13.522Z,22.60
2019-01-03T19:37:42.656Z,20.63
2019-01-03T19:40:14.013Z,24.20
2019-01-03T19:42:44.559Z,21.30
2019-01-03T19:45:14.093Z,17.20
2019-01-03T19:47:43.232Z,22.77
2019-01-03T19:50:16.484Z,20.00
2019-01-03T19:52:46.182Z,20.23
2019-01-03T19:55:15.446Z,21.57
2019-01-03T19:57:44.580Z,23.60
2019-01-03T20:00:15.763Z,17.67
2019-01-03T20:02:44.886Z,17.03
2019-01-03T20:05:14.047Z,20.90
2019-01-03T20:07:43.263Z,20.90
2019-01-03T20:10:13.578Z,23.80
2019-01-03T20:12:43.415Z,25.63
2019-01-03T20:15:14.747Z,20.00
2019-01-03T20:17:43.873Z,22.10
2019-01-03T20:20:13.042Z,17.63
2019-01-03T20:22:42.168Z,17.53
2019-01-03T20:25:11.704Z,14.30
2019-01-03T20:27:40.855Z,21.03
2019-01-03T20:30:11.453Z,23.77
2019-01-03T20:32:40.617Z,19.60
2019-01-03T20:35:09.786Z,21.90
2019-01-03T20:37:38.918Z,20.37
2019-01-03T20:40:09.717Z,24.27
2019-01-03T20:42:38.930Z,22.20
2019-01-03T20:45:12.079Z,18.40
2019-01-03T20:47:41.230Z,19.40
2019-01-03T20:50:12.678Z,20.77
2019-01-03T20:52:41.833Z,17.77
2019-01-03T20:55:11.037Z,29.53
2019-01-03T20:57:40.184Z,23.47
2019-01-03T21:00:13.496Z,26.00
2019-01-03T21:02:42.651Z,17.83
2019-01-03T21:05:11.820Z,22.27
2019-01-03T21:07:40.945Z,18.43
2019-01-03T21:10:11.886Z,15.70
2019-01-03T21:12:41.040Z,16.97
2019-01-03T21:15:14.285Z,20.63
2019-01-03T21:17:43.443Z,21.33
2019-01-03T21:20:15.593Z,18.07
2019-01-03T21:22:44.750Z,24.33
2019-01-03T21:25:13.892Z,25.67
2019-01-03T21:27:43.042Z,24.73
2019-01-03T21:30:17.984Z,24.10
2019-01-03T21:32:47.137Z,18.33
2019-01-03T21:35:16.270Z,23.20
2019-01-03T21:37:45.416Z,24.53
2019-01-03T21:40:14.545Z,21.80
2019-01-03T21:42:43.701Z,24.17
2019-01-03T21:45:12.921Z,34.70
2019-01-03T21:47:42.066Z,28.93
2019-01-03T21:50:11.935Z,28.43
2019-01-03T21:52:41.091Z,24.47
2019-01-03T21:55:10.235Z,29.77
2019-01-03T21:57:39.407Z,28.17
2019-01-03T22:00:11.558Z,23.90
2019-01-03T22:02:40.700Z,28.73
2019-01-03T22:05:09.829Z,23.43
2019-01-03T22:07:39.067Z,27.70
2019-01-03T22:10:10.000Z,20.00
2019-01-03T22:12:39.147Z,25.37
2019-01-03T22:15:09.568Z,23.20
2019-01-03T22:17:38.716Z,28.20
2019-01-03T22:20:09.560Z,22.27
2019-01-03T22:22:38.693Z,30.57
2019-01-03T22:25:08.668Z,28.27
2019-01-03T22:27:37.803Z,22.27
2019-01-03T22:30:10.146Z,26.83
2019-01-03T22:32:39.277Z,35.07
2019-01-03T22:35:08.675Z,32.70
2019-01-03T22:37:37.827Z,31.40
2019-01-03T22:40:08.209Z,27.50
2019-01-03T22:42:37.354Z,25.67
2019-01-03T22:45:08.517Z,31.90
2019-01-03T22:47:37.660Z,27.40
2019-01-03T22:50:10.057Z,28.53
2019-01-03T22:52:39.215Z,21.80
2019-01-03T22:55:08.352Z,29.20
2019-01-03T22:57:37.496Z,24.93
2019-01-03T23:00:31.788Z,21.27
2019-01-03T23:03:00.948Z,27.67
2019-01-03T23:05:30.071Z,31.33
2019-01-03T23:07:59.230Z,24.87
2019-01-03T23:10:28.370Z,21.93
2019-01-03T23:12:57.519Z,25.63
2019-01-03T23:15:26.644Z,29.83
2019-01-03T23:17:55.803Z,25.30
2019-01-03T23:20:24.921Z,26.57
2019-01-03T23:22:54.070Z,25.50
2019-01-03T23:25:23.197Z,22.87
2019-01-03T23:27:52.342Z,22.93
2019-01-03T23:30:21.476Z,30.30
2019-01-03T23:32:50.616Z,28.07
2019-01-03T23:35:19.738Z,26.33
2019-01-03T23:37:48.879Z,25.13
2019-01-03T23:40:18.013Z,29.53
2019-01-03T23:42:47.178Z,35.23
2019-01-03T23:45:19.414Z,32.77
2019-01-03T23:47:50.173Z,35.07
2019-01-03T23:50:28.711Z,35.00
2019-01-03T23:52:57.853Z,33.33
2019-01-03T23:55:26.983Z,34.73
2019-01-03T23:57:56.148Z,29.37
